Time;durP1;ratioP1;P1;durP2;ratioP2;P2;SDS_P1;SDS_P2;PMS_P1;PMS_P2;Temp;Humidity;BMP_temperature;BMP_pressure;BME280_temperature;BME280_humidity;BME280_pressure;Samples;Min_cycle;Max_cycle;Signal;HPM_P1;HPM_P2
2022/07/08 00:00:25;;;;;;;;;;;;;;;24.84;37.39;99237.09;4483492;32;34180;-86
2022/07/08 00:02:52;;;;;;;;;;;;;;;24.78;37.66;99238.25;4472140;32;34295;-86
2022/07/08 00:05:20;;;;;;;;;;;;;;;24.94;37.30;99236.63;4468241;32;34768;-86
2022/07/08 00:07:47;;;;;;;;;;;;;;;25.20;36.73;99237.28;4456275;32;34211;-87
2022/07/08 00:10:14;;;;;;;;;;;;;;;24.51;38.28;99235.03;4468755;32;33236;-86
2022/07/08 00:12:41;;;;;;;;;;;;;;;24.06;39.11;99235.12;4483241;32;34156;-86
2022/07/08 00:15:09;;;;;;;;;;;;;;;24.41;38.56;99236.34;4483581;32;34200;-86
2022/07/08 00:17:37;;;;;;;;;;;;;;;24.58;38.27;99228.50;4483336;32;33852;-96
2022/07/08 00:20:04;;;;;;;;;;;;;;;23.86;39.51;99233.28;4455909;32;33523;-86
2022/07/08 00:22:31;;;;;;;;;;;;;;;23.64;40.21;99239.41;4468445;32;33991;-92
2022/07/08 00:24:59;;;;;;;;;;;;;;;23.35;40.77;99243.19;4469856;32;34377;-87
2022/07/08 00:27:26;;;;;;;;;;;;;;;24.33;38.85;99239.28;4470146;32;34228;-87
2022/07/08 00:29:53;;;;;;;;;;;;;;;23.10;41.37;99242.38;4484645;32;33736;-86
2022/07/08 00:32:21;;;;;;;;;;;;;;;23.81;39.99;99229.97;4485535;32;34212;-87
2022/07/08 00:34:49;;;;;;;;;;;;;;;24.24;38.99;99237.00;4467424;32;35029;-87
2022/07/08 00:37:16;;;;;;;;;;;;;;;24.48;38.43;99227.19;4469385;32;33332;-86
2022/07/08 00:39:44;;;;;;;;;;;;;;;23.59;40.26;99236.06;4487065;32;33528;-89
2022/07/08 00:42:11;;;;;;;;;;;;;;;24.06;39.66;99225.41;4481719;32;34145;-88
2022/07/08 00:44:38;;;;;;;;;;;;;;;24.63;38.46;99223.87;4467998;32;34199;-87
2022/07/08 00:47:06;;;;;;;;;;;;;;;23.64;40.43;99231.47;4453797;32;33931;-87
2022/07/08 00:49:33;;;;;;;;;;;;;;;23.34;41.17;99233.53;4467685;32;33766;-87
2022/07/08 00:52:00;;;;;;;;;;;;;;;23.48;40.84;99233.84;4467219;32;34936;-87
2022/07/08 00:54:28;;;;;;;;;;;;;;;23.13;41.86;99240.47;4468501;32;35266;-86
2022/07/08 00:56:55;;;;;;;;;;;;;;;23.38;41.15;99235.12;4484076;32;34247;-86
2022/07/08 00:59:22;;;;;;;;;;;;;;;23.62;40.68;99233.31;4482713;32;33375;-93
2022/07/08 01:01:50;;;;;;;;;;;;;;;23.05;41.99;99231.97;4467748;32;35172;-86
2022/07/08 01:04:17;;;;;;;;;;;;;;;22.37;43.67;99235.25;4458728;32;34352;-93
2022/07/08 01:06:45;;;;;;;;;;;;;;;21.93;44.66;99233.13;4482673;32;34645;-87
2022/07/08 01:09:14;;;;;;;;;;;;;;;22.25;43.88;99226.84;4482740;32;34063;-87
2022/07/08 01:11:44;;;;;;;;;;;;;;;22.13;44.37;99229.88;4475814;32;34352;-87
2022/07/08 01:14:11;;;;;;;;;;;;;;;22.46;43.64;99229.66;4465911;32;34383;-87
2022/07/08 01:16:40;;;;;;;;;;;;;;;22.20;44.17;99231.44;4481116;32;34285;-90
2022/07/08 01:19:07;;;;;;;;;;;;;;;22.42;43.76;99217.47;4482910;32;32804;-86
2022/07/08 01:21:34;;;;;;;;;;;;;;;22.04;44.41;99228.38;4482438;32;35128;-88
2022/07/08 01:24:02;;;;;;;;;;;;;;;22.15;44.42;99219.28;4476409;32;34304;-86
2022/07/08 01:26:29;;;;;;;;;;;;;;;21.84;45.02;99222.87;4466795;32;34781;-87
2022/07/08 01:28:56;;;;;;;;;;;;;;;22.03;44.70;99225.78;4452711;32;33389;-86
2022/07/08 01:31:24;;;;;;;;;;;;;;;22.60;43.45;99224.75;4452124;32;34369;-87
2022/07/08 01:33:51;;;;;;;;;;;;;;;22.43;43.82;99227.12;4477970;32;35206;-87
2022/07/08 01:36:18;;;;;;;;;;;;;;;21.82;45.27;99233.50;4468301;32;34436;-87
2022/07/08 01:38:46;;;;;;;;;;;;;;;22.24;44.29;99224.25;4468400;32;34267;-86
2022/07/08 01:41:13;;;;;;;;;;;;;;;22.33;44.15;99219.50;4483233;32;34337;-86
2022/07/08 01:43:40;;;;;;;;;;;;;;;22.39;43.94;99212.28;4468331;32;34441;-87
2022/07/08 01:46:08;;;;;;;;;;;;;;;22.43;43.92;99208.66;4479645;32;34317;-86
2022/07/08 01:48:35;;;;;;;;;;;;;;;22.79;43.15;99212.59;4468702;32;33114;-87
2022/07/08 01:51:02;;;;;;;;;;;;;;;22.76;43.18;99220.62;4481118;32;33885;-86
2022/07/08 01:53:30;;;;;;;;;;;;;;;23.13;42.37;99206.09;4478936;32;33587;-86
2022/07/08 01:55:57;;;;;;;;;;;;;;;23.49;41.42;99209.13;4464195;32;34743;-87
2022/07/08 01:58:24;;;;;;;;;;;;;;;23.03;42.55;99220.56;4468882;32;33059;-86
2022/07/08 02:00:53;;;;;;;;;;;;;;;23.62;41.30;99214.78;4468494;32;34273;-89
2022/07/08 02:03:20;;;;;;;;;;;;;;;23.43;41.45;99208.50;4457060;32;34183;-86
2022/07/08 02:05:47;;;;;;;;;;;;;;;23.44;41.58;99208.41;4464029;32;32571;-87
2022/07/08 02:08:15;;;;;;;;;;;;;;;22.69;43.26;99220.91;4485830;32;33154;-89
2022/07/08 02:13:28;;;;;;;;;;;;;;;23.67;41.14;99220.78;4486280;32;33557;-96
2022/07/08 02:15:56;;;;;;;;;;;;;;;23.43;41.63;99219.06;4486990;32;33910;-96
2022/07/08 02:18:23;;;;;;;;;;;;;;;23.48;41.48;99225.91;4486318;32;34172;-87
2022/07/08 02:20:51;;;;;;;;;;;;;;;23.37;41.57;99224.59;4487773;32;34464;-91
2022/07/08 02:23:18;;;;;;;;;;;;;;;22.97;42.70;99221.69;4484089;32;35131;-87
2022/07/08 02:25:45;;;;;;;;;;;;;;;22.97;42.65;99234.03;4484520;32;34983;-87
2022/07/08 02:28:13;;;;;;;;;;;;;;;22.88;42.86;99232.56;4470306;32;33674;-87
2022/07/08 02:30:40;;;;;;;;;;;;;;;23.34;41.93;99230.03;4469117;32;34297;-88
2022/07/08 02:33:07;;;;;;;;;;;;;;;22.68;43.25;99235.06;4469979;32;35094;-88
2022/07/08 02:35:35;;;;;;;;;;;;;;;23.15;42.01;99228.06;4478736;32;34320;-89
2022/07/08 02:38:02;;;;;;;;;;;;;;;22.52;43.65;99232.94;4471857;32;33358;-88
2022/07/08 02:40:29;;;;;;;;;;;;;;;22.37;44.13;99235.25;4467315;32;34331;-95
2022/07/08 02:42:57;;;;;;;;;;;;;;;22.30;44.38;99235.47;4481752;32;34534;-86
2022/07/08 02:45:24;;;;;;;;;;;;;;;22.95;42.78;99238.50;4478469;32;34093;-86
2022/07/08 02:47:52;;;;;;;;;;;;;;;22.79;43.03;99239.03;4468474;32;33849;-85
2022/07/08 02:50:19;;;;;;;;;;;;;;;23.44;41.51;99234.03;4468625;32;35076;-87
2022/07/08 02:52:47;;;;;;;;;;;;;;;23.41;41.73;99231.50;4469483;32;34510;-94
2022/07/08 02:55:14;;;;;;;;;;;;;;;23.93;40.63;99229.47;4471384;32;33998;-95
2022/07/08 02:57:41;;;;;;;;;;;;;;;23.80;40.64;99231.75;4483999;32;34080;-85
2022/07/08 03:00:09;;;;;;;;;;;;;;;22.28;44.13;99237.31;4484134;32;34204;-96
2022/07/08 03:02:36;;;;;;;;;;;;;;;22.89;42.75;99249.28;4478183;32;34846;-86
2022/07/08 03:05:04;;;;;;;;;;;;;;;22.93;42.84;99241.22;4469846;32;34137;-86
2022/07/08 03:07:31;;;;;;;;;;;;;;;23.29;42.13;99240.75;4468071;32;34085;-88
2022/07/08 03:09:58;;;;;;;;;;;;;;;22.18;44.49;99230.59;4468235;32;34435;-89
2022/07/08 03:12:26;;;;;;;;;;;;;;;22.50;43.85;99231.25;4472098;32;34125;-90
2022/07/08 03:14:53;;;;;;;;;;;;;;;22.18;44.64;99230.59;4484253;32;34806;-88
2022/07/08 03:17:20;;;;;;;;;;;;;;;22.93;42.79;99237.72;4484566;32;34106;-89
2022/07/08 03:19:48;;;;;;;;;;;;;;;22.72;43.44;99242.81;4469180;32;33980;-92
2022/07/08 03:22:15;;;;;;;;;;;;;;;21.82;45.56;99248.44;4480640;32;33636;-91
2022/07/08 03:24:42;;;;;;;;;;;;;;;21.93;45.15;99240.19;4468073;32;33822;-91
2022/07/08 03:27:10;;;;;;;;;;;;;;;21.62;46.17;99243.81;4473462;32;34435;-90
2022/07/08 03:29:37;;;;;;;;;;;;;;;21.64;46.16;99238.50;4469486;32;35177;-91
2022/07/08 03:32:04;;;;;;;;;;;;;;;20.99;47.54;99247.44;4483360;32;35297;-90
2022/07/08 03:34:32;;;;;;;;;;;;;;;22.42;44.39;99249.16;4482787;32;34184;-91
2022/07/08 03:37:02;;;;;;;;;;;;;;;21.96;45.47;99251.53;4469589;32;33434;-90
2022/07/08 03:39:30;;;;;;;;;;;;;;;21.64;46.21;99243.78;4483617;32;34601;-92
2022/07/08 03:41:57;;;;;;;;;;;;;;;22.60;43.76;99248.53;4481762;32;35405;-92
2022/07/08 03:44:25;;;;;;;;;;;;;;;22.36;44.23;99249.41;4467991;32;34067;-91
2022/07/08 03:46:52;;;;;;;;;;;;;;;22.27;44.64;99243.47;4453631;32;33526;-88
2022/07/08 03:49:19;;;;;;;;;;;;;;;21.60;46.20;99249.16;4467639;32;35145;-90
2022/07/08 03:51:47;;;;;;;;;;;;;;;20.65;48.58;99245.72;4463937;32;34402;-88
2022/07/08 03:54:14;;;;;;;;;;;;;;;21.23;47.21;99243.22;4468411;32;33457;-90
2022/07/08 03:56:41;;;;;;;;;;;;;;;20.82;48.37;99245.25;4468387;32;33933;-89
2022/07/08 03:59:08;;;;;;;;;;;;;;;21.71;46.18;99246.19;4482747;32;33696;-87
2022/07/08 04:01:36;;;;;;;;;;;;;;;22.03;45.44;99246.91;4473897;32;34378;-87
2022/07/08 04:04:03;;;;;;;;;;;;;;;22.03;45.39;99246.91;4453186;32;34864;-89
2022/07/08 04:06:31;;;;;;;;;;;;;;;21.53;46.50;99254.66;4453783;32;34181;-92
2022/07/08 04:08:59;;;;;;;;;;;;;;;21.27;47.59;99256.25;4467547;32;34200;-88
2022/07/08 04:11:27;;;;;;;;;;;;;;;21.35;47.12;99261.34;4453864;32;34511;-87
2022/07/08 04:13:54;;;;;;;;;;;;;;;22.21;45.20;99256.91;4467744;32;34407;-90
2022/07/08 04:16:22;;;;;;;;;;;;;;;21.89;45.89;99263.19;4467710;32;33323;-90
2022/07/08 04:18:50;;;;;;;;;;;;;;;22.69;43.95;99256.16;4468769;32;34596;-90
2022/07/08 04:21:17;;;;;;;;;;;;;;;22.70;43.79;99259.66;4481671;32;35309;-90
2022/07/08 04:23:44;;;;;;;;;;;;;;;23.11;42.84;99266.12;4483255;32;34237;-88
2022/07/08 04:26:12;;;;;;;;;;;;;;;22.91;43.15;99263.31;4461934;32;33038;-92
2022/07/08 04:28:40;;;;;;;;;;;;;;;22.97;43.12;99257.84;4453697;32;33684;-89
2022/07/08 04:31:07;;;;;;;;;;;;;;;23.10;43.08;99259.09;4467320;32;34211;-90
2022/07/08 04:33:35;;;;;;;;;;;;;;;23.67;41.84;99259.63;4467350;32;33450;-90
2022/07/08 04:36:03;;;;;;;;;;;;;;;22.78;43.38;99257.59;4453254;32;31446;-88
2022/07/08 04:38:30;;;;;;;;;;;;;;;22.86;43.28;99262.63;4467260;32;34309;-90
2022/07/08 04:40:58;;;;;;;;;;;;;;;22.57;44.23;99259.19;4474920;32;35393;-88
2022/07/08 04:43:25;;;;;;;;;;;;;;;23.05;43.03;99267.22;4467507;32;33996;-91
2022/07/08 04:45:53;;;;;;;;;;;;;;;23.09;42.97;99267.97;4467117;32;33536;-89
2022/07/08 04:48:20;;;;;;;;;;;;;;;23.02;43.10;99274.38;4466576;32;33890;-90
2022/07/08 04:50:48;;;;;;;;;;;;;;;22.21;45.07;99275.41;4468247;32;33591;-89
2022/07/08 04:53:15;;;;;;;;;;;;;;;22.89;43.77;99275.72;4479125;32;34262;-90
2022/07/08 04:55:42;;;;;;;;;;;;;;;22.68;44.18;99272.03;4483429;32;34537;-90
2022/07/08 04:58:09;;;;;;;;;;;;;;;22.94;43.89;99273.81;4468670;32;33802;-91
2022/07/08 05:00:37;;;;;;;;;;;;;;;22.64;44.09;99275.72;4482799;32;33853;-90
2022/07/08 05:03:04;;;;;;;;;;;;;;;23.73;42.01;99286.72;4471943;32;33400;-86
2022/07/08 05:05:33;;;;;;;;;;;;;;;23.16;42.96;99285.34;4482933;32;33472;-90
2022/07/08 05:08:01;;;;;;;;;;;;;;;23.51;42.82;99285.78;4482569;32;33859;-90
2022/07/08 05:10:28;;;;;;;;;;;;;;;22.58;44.14;99282.09;4483342;32;35271;-89
2022/07/08 05:12:57;;;;;;;;;;;;;;;22.23;45.08;99292.03;4473425;32;34746;-88
2022/07/08 05:15:24;;;;;;;;;;;;;;;22.88;43.92;99289.84;4468836;32;34088;-89
2022/07/08 05:17:54;;;;;;;;;;;;;;;22.63;44.37;99285.44;4477882;32;34131;-90
2022/07/08 05:20:22;;;;;;;;;;;;;;;23.53;42.43;99290.13;4468524;32;34357;-88
2022/07/08 05:22:49;;;;;;;;;;;;;;;23.67;42.20;99292.25;4474913;32;34276;-90
2022/07/08 05:25:17;;;;;;;;;;;;;;;22.60;44.32;99296.09;4475493;32;33944;-90
2022/07/08 05:27:44;;;;;;;;;;;;;;;22.71;44.29;99304.53;4473449;32;34840;-89
2022/07/08 05:30:11;;;;;;;;;;;;;;;24.01;41.57;99302.38;4479585;32;34948;-90
2022/07/08 05:32:39;;;;;;;;;;;;;;;23.78;41.75;99292.69;4475281;32;34788;-90
2022/07/08 05:35:06;;;;;;;;;;;;;;;23.23;42.90;99307.13;4468693;32;34132;-88
2022/07/08 05:37:36;;;;;;;;;;;;;;;23.25;42.97;99310.56;4454422;32;34132;-89
2022/07/08 05:40:10;;;;;;;;;;;;;;;23.27;42.79;99314.91;4476011;32;34077;-89
2022/07/08 05:42:37;;;;;;;;;;;;;;;23.50;42.15;99307.87;4477075;32;33584;-88
2022/07/08 05:45:05;;;;;;;;;;;;;;;23.09;43.43;99312.06;4457552;32;34007;-89
2022/07/08 05:47:32;;;;;;;;;;;;;;;23.94;41.71;99316.81;4474010;32;34193;-89
2022/07/08 05:50:00;;;;;;;;;;;;;;;24.10;41.45;99326.78;4468857;32;34383;-92
2022/07/08 05:52:27;;;;;;;;;;;;;;;23.49;42.63;99316.75;4474357;32;34690;-91
2022/07/08 05:54:54;;;;;;;;;;;;;;;23.55;42.42;99322.66;4478080;32;33402;-91
2022/07/08 05:57:22;;;;;;;;;;;;;;;22.73;44.22;99326.50;4468538;32;34169;-91
2022/07/08 05:59:52;;;;;;;;;;;;;;;24.60;41.17;99321.22;4454249;32;35260;-90
2022/07/08 06:02:51;;;;;;;;;;;;;;;24.74;40.23;99319.72;4469380;32;34271;-90
2022/07/08 06:05:18;;;;;;;;;;;;;;;25.05;39.85;99317.53;4469087;32;33271;-89
2022/07/08 06:07:45;;;;;;;;;;;;;;;25.46;38.90;99319.22;4474196;32;34019;-89
2022/07/08 06:10:13;;;;;;;;;;;;;;;25.93;37.81;99324.13;4475069;32;35061;-92
2022/07/08 06:12:40;;;;;;;;;;;;;;;26.25;37.47;99319.03;4468743;32;33900;-91
2022/07/08 06:15:08;;;;;;;;;;;;;;;26.07;37.18;99315.50;4482264;32;34192;-90
2022/07/08 06:17:37;;;;;;;;;;;;;;;26.98;36.19;99311.84;4483704;32;33960;-89
2022/07/08 06:20:06;;;;;;;;;;;;;;;26.57;37.33;99314.81;4472902;32;34521;-89
2022/07/08 06:22:33;;;;;;;;;;;;;;;27.06;35.86;99322.94;4453855;32;33123;-91
2022/07/08 06:25:00;;;;;;;;;;;;;;;25.98;37.28;99317.72;4468324;32;32786;-90
2022/07/08 06:27:28;;;;;;;;;;;;;;;26.10;38.10;99327.75;4468221;32;34330;-89
2022/07/08 06:33:01;;;;;;;;;;;;;;;26.26;37.19;99330.56;4483987;32;33385;-92
2022/07/08 06:35:28;;;;;;;;;;;;;;;26.18;37.69;99334.44;4484187;32;32716;-89
2022/07/08 06:37:55;;;;;;;;;;;;;;;25.79;38.08;99329.22;4475131;32;33556;-91
2022/07/08 06:40:22;;;;;;;;;;;;;;;26.66;37.38;99330.31;4468608;32;34959;-89
2022/07/08 06:42:51;;;;;;;;;;;;;;;27.17;35.72;99330.41;4480943;32;33957;-89
2022/07/08 06:45:18;;;;;;;;;;;;;;;27.30;35.33;99317.28;4478873;32;32930;-90
2022/07/08 06:47:46;;;;;;;;;;;;;;;27.31;37.06;99322.50;4474510;32;34186;-91
2022/07/08 06:50:13;;;;;;;;;;;;;;;26.84;36.48;99319.66;4483960;32;34485;-91
2022/07/08 06:52:40;;;;;;;;;;;;;;;27.40;35.98;99329.16;4469300;32;34230;-91
2022/07/08 06:55:08;;;;;;;;;;;;;;;27.07;35.87;99329.97;4480429;32;33017;-88
2022/07/08 06:57:35;;;;;;;;;;;;;;;27.27;35.59;99325.44;4483487;32;34120;-91
2022/07/08 07:00:04;;;;;;;;;;;;;;;27.63;34.44;99323.44;4469673;32;35253;-92
2022/07/08 07:02:49;;;;;;;;;;;;;;;27.52;34.71;99325.84;4482626;32;34100;-91
2022/07/08 07:05:17;;;;;;;;;;;;;;;27.76;34.89;99330.78;4462135;32;33601;-91
2022/07/08 07:07:44;;;;;;;;;;;;;;;27.20;35.38;99318.72;4469507;32;32663;-91
2022/07/08 07:10:12;;;;;;;;;;;;;;;27.05;35.72;99328.31;4461990;32;34958;-91
2022/07/08 07:12:40;;;;;;;;;;;;;;;27.47;35.21;99327.91;4453458;32;33785;-90
2022/07/08 07:15:07;;;;;;;;;;;;;;;26.86;35.95;99328.44;4455974;32;34299;-91
2022/07/08 07:17:35;;;;;;;;;;;;;;;26.51;36.74;99336.38;4477235;32;33728;-91
2022/07/08 07:20:02;;;;;;;;;;;;;;;26.66;36.39;99340.94;4483187;32;33955;-89
2022/07/08 07:22:29;;;;;;;;;;;;;;;26.95;36.27;99341.25;4480128;32;33407;-89
2022/07/08 07:24:57;;;;;;;;;;;;;;;27.27;35.64;99336.94;4469603;32;33222;-92
2022/07/08 07:27:24;;;;;;;;;;;;;;;27.61;34.71;99335.97;4478838;32;35211;-91
2022/07/08 07:29:51;;;;;;;;;;;;;;;27.37;35.49;99332.00;4471234;32;34936;-96
2022/07/08 07:32:18;;;;;;;;;;;;;;;28.22;34.13;99336.19;4463515;32;34802;-94
2022/07/08 07:34:46;;;;;;;;;;;;;;;28.24;33.67;99334.31;4470046;32;33412;-88
2022/07/08 07:37:13;;;;;;;;;;;;;;;28.19;34.17;99337.25;4483612;32;34283;-95
2022/07/08 07:39:41;;;;;;;;;;;;;;;27.97;34.19;99336.75;4480796;32;34270;-88
2022/07/08 07:42:08;;;;;;;;;;;;;;;27.76;34.74;99344.13;4473891;32;34030;-87
2022/07/08 07:44:35;;;;;;;;;;;;;;;27.95;34.93;99346.63;4467947;32;33443;-86
2022/07/08 07:47:03;;;;;;;;;;;;;;;29.17;32.64;99336.00;4474519;32;34989;-91
2022/07/08 07:49:30;;;;;;;;;;;;;;;27.82;34.06;99338.47;4483293;32;34527;-90
2022/07/08 07:51:57;;;;;;;;;;;;;;;27.78;35.08;99331.59;4465171;32;33995;-87
2022/07/08 07:54:25;;;;;;;;;;;;;;;28.22;34.75;99339.72;4467681;32;32961;-91
2022/07/08 07:56:55;;;;;;;;;;;;;;;27.76;34.66;99342.31;4469727;32;34880;-88
2022/07/08 07:59:22;;;;;;;;;;;;;;;29.12;33.32;99330.09;4467746;32;34105;-90
2022/07/08 08:01:49;;;;;;;;;;;;;;;28.45;33.61;99332.25;4467743;32;33959;-88
2022/07/08 08:04:17;;;;;;;;;;;;;;;27.34;34.62;99342.81;4467405;32;34104;-89
2022/07/08 08:06:44;;;;;;;;;;;;;;;28.82;32.79;99339.81;4481442;32;34507;-90
2022/07/08 08:09:19;;;;;;;;;;;;;;;29.01;32.25;99328.91;4472805;32;34378;-90
2022/07/08 08:11:46;;;;;;;;;;;;;;;28.11;33.50;99340.34;4482754;32;33806;-89
2022/07/08 08:14:13;;;;;;;;;;;;;;;29.23;32.03;99330.28;4468690;32;34304;-92
2022/07/08 08:16:41;;;;;;;;;;;;;;;28.49;32.54;99340.00;4482417;32;33744;-88
2022/07/08 08:19:08;;;;;;;;;;;;;;;29.30;31.51;99331.63;4483376;32;35076;-89
2022/07/08 08:21:36;;;;;;;;;;;;;;;28.55;32.20;99328.97;4479756;31;34244;-89
2022/07/08 08:24:04;;;;;;;;;;;;;;;29.11;32.11;99337.22;4470456;31;33449;-89
2022/07/08 08:26:32;;;;;;;;;;;;;;;29.74;31.39;99341.38;4473870;32;35737;-87
2022/07/08 08:28:59;;;;;;;;;;;;;;;29.56;30.72;99343.38;4483321;32;34000;-85
2022/07/08 08:31:27;;;;;;;;;;;;;;;30.22;29.81;99336.53;4480435;32;33575;-89
2022/07/08 08:33:54;;;;;;;;;;;;;;;29.27;31.20;99337.16;4476715;32;33557;-87
2022/07/08 08:36:23;;;;;;;;;;;;;;;29.70;30.42;99345.19;4471586;32;34313;-90
2022/07/08 08:38:50;;;;;;;;;;;;;;;27.43;33.75;99352.97;4454328;32;34287;-86
2022/07/08 08:41:17;;;;;;;;;;;;;;;28.12;33.13;99352.72;4467262;32;34847;-89
2022/07/08 08:43:45;;;;;;;;;;;;;;;28.59;32.47;99341.16;4466972;32;33338;-89
2022/07/08 08:46:12;;;;;;;;;;;;;;;28.30;32.94;99347.31;4478854;32;34241;-87
2022/07/08 08:48:40;;;;;;;;;;;;;;;28.95;32.49;99344.44;4467897;32;34067;-88
2022/07/08 08:51:08;;;;;;;;;;;;;;;28.81;31.64;99350.56;4467032;32;33851;-88
2022/07/08 08:53:41;;;;;;;;;;;;;;;29.33;30.66;99347.47;4465974;32;33793;-90
2022/07/08 08:56:09;;;;;;;;;;;;;;;28.90;31.62;99350.03;4461116;32;34298;-88
2022/07/08 08:58:38;;;;;;;;;;;;;;;29.04;32.07;99344.75;4471076;32;33650;-89
2022/07/08 09:01:06;;;;;;;;;;;;;;;28.37;32.17;99356.69;4479780;32;33983;-90
2022/07/08 09:03:34;;;;;;;;;;;;;;;27.70;33.20;99363.09;4461614;32;33397;-88
2022/07/08 09:06:02;;;;;;;;;;;;;;;28.69;32.10;99356.66;4467756;32;33740;-88
2022/07/08 09:08:30;;;;;;;;;;;;;;;29.92;29.99;99350.88;4467191;32;34309;-88
2022/07/08 09:10:57;;;;;;;;;;;;;;;29.53;29.90;99356.91;4474162;32;34920;-89
2022/07/08 09:13:25;;;;;;;;;;;;;;;28.79;31.16;99353.34;4480829;32;33381;-88
2022/07/08 09:15:59;;;;;;;;;;;;;;;28.75;31.30;99351.81;4467544;32;34035;-90
2022/07/08 09:18:35;;;;;;;;;;;;;;;28.91;31.22;99350.91;4482420;32;34975;-88
2022/07/08 09:21:06;;;;;;;;;;;;;;;29.52;30.52;99355.19;4482416;32;34820;-87
2022/07/08 09:23:35;;;;;;;;;;;;;;;29.26;30.80;99352.31;4466489;32;32925;-86
2022/07/08 09:26:03;;;;;;;;;;;;;;;29.89;29.40;99340.41;4452340;32;35062;-90
2022/07/08 09:28:30;;;;;;;;;;;;;;;28.53;31.44;99356.69;4466617;32;34164;-87
2022/07/08 09:31:00;;;;;;;;;;;;;;;29.02;30.70;99346.66;4466580;32;34210;-88
2022/07/08 09:33:27;;;;;;;;;;;;;;;29.31;29.69;99352.03;4466383;32;33461;-88
2022/07/08 09:35:55;;;;;;;;;;;;;;;28.85;29.89;99344.97;4482217;32;32429;-88
2022/07/08 09:38:23;;;;;;;;;;;;;;;30.27;28.31;99356.69;4481999;32;35126;-87
2022/07/08 09:40:53;;;;;;;;;;;;;;;30.39;28.31;99354.16;4467757;32;34859;-87
2022/07/08 09:43:21;;;;;;;;;;;;;;;29.95;28.65;99349.84;4467524;32;32410;-86
2022/07/08 09:45:48;;;;;;;;;;;;;;;28.75;31.52;99362.50;4466915;32;34488;-87
2022/07/08 09:48:16;;;;;;;;;;;;;;;29.36;30.32;99349.97;4466099;32;34168;-88
2022/07/08 09:50:44;;;;;;;;;;;;;;;29.65;29.95;99352.63;4466248;32;33425;-89
2022/07/08 09:53:31;;;;;;;;;;;;;;;28.74;30.73;99358.06;4474849;32;33407;-89
2022/07/08 09:56:01;;;;;;;;;;;;;;;29.36;30.22;99357.09;4482317;32;33991;-86
2022/07/08 09:58:28;;;;;;;;;;;;;;;30.09;28.58;99349.81;4482240;32;35434;-89
2022/07/08 10:00:56;;;;;;;;;;;;;;;29.26;31.02;99351.47;4469906;32;34618;-86
2022/07/08 10:03:24;;;;;;;;;;;;;;;29.38;30.34;99356.03;4469100;32;33196;-89
2022/07/08 10:05:51;;;;;;;;;;;;;;;29.36;30.50;99360.63;4468427;32;34591;-90
2022/07/08 10:08:19;;;;;;;;;;;;;;;29.19;30.63;99363.47;4473524;32;34293;-90
2022/07/08 10:10:48;;;;;;;;;;;;;;;28.93;30.34;99357.84;4468737;32;33881;-89
2022/07/08 10:13:15;;;;;;;;;;;;;;;28.99;30.55;99362.00;4476328;31;33613;-90
2022/07/08 10:15:43;;;;;;;;;;;;;;;29.07;30.15;99360.59;4479981;32;34020;-89
2022/07/08 10:18:30;;;;;;;;;;;;;;;28.44;30.91;99362.53;4472545;32;34487;-92
2022/07/08 10:20:58;;;;;;;;;;;;;;;28.66;30.96;99368.34;4460362;32;33845;-87
2022/07/08 10:23:49;;;;;;;;;;;;;;;29.12;30.06;99348.78;4470433;32;33158;-88
2022/07/08 10:26:28;;;;;;;;;;;;;;;28.35;31.53;99371.91;4446610;32;34021;-88
2022/07/08 10:29:00;;;;;;;;;;;;;;;28.65;30.86;99365.78;4462709;32;34504;-91
2022/07/08 10:31:29;;;;;;;;;;;;;;;29.56;29.21;99362.06;4467624;32;34740;-88
2022/07/08 10:34:00;;;;;;;;;;;;;;;29.47;29.47;99370.63;4468244;32;34174;-86
2022/07/08 10:36:27;;;;;;;;;;;;;;;29.26;29.52;99372.81;4467391;32;34323;-86
2022/07/08 10:38:55;;;;;;;;;;;;;;;29.65;29.42;99371.34;4468096;32;34328;-87
2022/07/08 10:41:25;;;;;;;;;;;;;;;30.17;28.61;99368.91;4469820;32;33818;-89
2022/07/08 10:43:53;;;;;;;;;;;;;;;28.82;30.08;99370.97;4460071;32;32877;-90
2022/07/08 10:46:21;;;;;;;;;;;;;;;28.68;29.52;99365.56;4466634;32;34236;-88
2022/07/08 10:48:50;;;;;;;;;;;;;;;28.90;29.51;99371.38;4477298;32;34451;-89
2022/07/08 10:51:17;;;;;;;;;;;;;;;29.00;28.69;99369.91;4481517;32;34243;-90
2022/07/08 10:54:05;;;;;;;;;;;;;;;28.99;29.18;99365.53;4467459;32;34244;-91
2022/07/08 10:56:55;;;;;;;;;;;;;;;29.81;28.79;99367.63;4467468;32;33733;-88
2022/07/08 10:59:25;;;;;;;;;;;;;;;30.05;28.90;99373.22;4467359;32;34017;-89
2022/07/08 11:01:56;;;;;;;;;;;;;;;30.11;27.73;99374.63;4465783;32;34266;-89
2022/07/08 11:04:31;;;;;;;;;;;;;;;30.20;27.50;99367.87;4471652;32;33766;-87
2022/07/08 11:09:45;;;;;;;;;;;;;;;30.66;26.21;99383.56;4843077;26;34237;-88
2022/07/08 11:12:16;;;;;;;;;;;;;;;29.63;27.11;99386.63;4477393;32;34073;-88
2022/07/08 11:14:50;;;;;;;;;;;;;;;29.94;25.68;99385.56;4483072;31;33579;-91
2022/07/08 11:17:20;;;;;;;;;;;;;;;29.86;26.79;99378.03;4476505;31;33987;-90
2022/07/08 11:19:48;;;;;;;;;;;;;;;30.56;25.47;99377.09;4483528;31;34169;-91
2022/07/08 11:22:15;;;;;;;;;;;;;;;29.61;26.77;99383.19;4487429;31;33639;-90
2022/07/08 11:24:53;;;;;;;;;;;;;;;30.17;26.02;99384.09;4499621;31;34002;-92
2022/07/08 11:27:24;;;;;;;;;;;;;;;30.10;26.18;99390.78;4483212;31;35013;-89
2022/07/08 11:29:52;;;;;;;;;;;;;;;30.45;26.31;99392.03;4488059;31;34033;-91
2022/07/08 11:32:20;;;;;;;;;;;;;;;30.67;25.62;99390.63;4488160;31;33818;-91
2022/07/08 11:34:48;;;;;;;;;;;;;;;30.60;25.42;99394.66;4484667;31;33069;-91
2022/07/08 11:37:16;;;;;;;;;;;;;;;30.49;25.55;99387.34;4484741;31;34231;-89
2022/07/08 11:39:43;;;;;;;;;;;;;;;30.53;25.49;99388.84;4484596;31;35181;-89
2022/07/08 11:42:11;;;;;;;;;;;;;;;30.70;25.11;99393.97;4492338;31;34126;-88
2022/07/08 11:44:39;;;;;;;;;;;;;;;31.24;24.91;99385.84;4483615;32;33059;-93
2022/07/08 11:47:06;;;;;;;;;;;;;;;31.56;23.88;99395.31;4469430;31;34852;-91
2022/07/08 11:49:39;;;;;;;;;;;;;;;30.57;24.64;99393.03;4469193;32;34077;-92
2022/07/08 11:52:06;;;;;;;;;;;;;;;30.45;24.79;99393.84;4475618;31;35186;-91
2022/07/08 11:54:34;;;;;;;;;;;;;;;29.56;26.56;99389.63;4498755;31;33974;-93
2022/07/08 11:57:02;;;;;;;;;;;;;;;29.61;26.73;99396.53;4499335;31;32940;-93
2022/07/08 11:59:31;;;;;;;;;;;;;;;30.29;26.45;99397.53;4484759;31;34221;-91
2022/07/08 12:01:58;;;;;;;;;;;;;;;30.50;26.07;99392.63;4493711;31;34663;-92
2022/07/08 12:04:26;;;;;;;;;;;;;;;29.40;27.56;99394.22;4474896;31;33234;-93
2022/07/08 12:06:54;;;;;;;;;;;;;;;30.81;25.52;99393.28;4490098;31;34189;-93
2022/07/08 12:09:22;;;;;;;;;;;;;;;31.06;24.75;99391.59;4485169;31;34841;-90
2022/07/08 12:11:51;;;;;;;;;;;;;;;31.44;23.63;99391.66;4476191;31;34141;-94
2022/07/08 12:14:18;;;;;;;;;;;;;;;31.63;22.40;99388.56;4489023;31;32946;-90
2022/07/08 12:16:46;;;;;;;;;;;;;;;30.69;25.44;99399.44;4498575;31;35053;-89
2022/07/08 12:19:43;;;;;;;;;;;;;;;30.56;25.13;99398.50;4477789;31;33841;-91
2022/07/08 12:22:12;;;;;;;;;;;;;;;29.96;26.18;99400.53;4483239;31;34279;-90
2022/07/08 12:24:40;;;;;;;;;;;;;;;30.76;25.54;99398.94;4483049;31;32892;-95
2022/07/08 12:27:09;;;;;;;;;;;;;;;30.41;26.21;99390.53;4480549;31;35209;-89
2022/07/08 12:29:37;;;;;;;;;;;;;;;29.97;27.12;99391.56;4484857;31;34252;-90
2022/07/08 12:32:09;;;;;;;;;;;;;;;30.46;26.85;99388.44;4496259;31;33783;-92
2022/07/08 12:34:37;;;;;;;;;;;;;;;29.39;28.16;99387.12;4498263;31;33181;-93
2022/07/08 12:37:14;;;;;;;;;;;;;;;30.11;26.90;99397.81;4482877;31;34118;-91
2022/07/08 12:39:42;;;;;;;;;;;;;;;29.85;27.33;99386.13;4472366;32;33940;-90
2022/07/08 12:42:23;;;;;;;;;;;;;;;30.15;27.83;99391.31;4471713;31;33232;-92
2022/07/08 12:44:51;;;;;;;;;;;;;;;29.79;27.28;99387.38;4482142;31;33760;-91
2022/07/08 12:47:18;;;;;;;;;;;;;;;28.30;29.58;99392.66;4494394;31;33965;-89
2022/07/08 12:49:46;;;;;;;;;;;;;;;29.01;28.94;99384.13;4489170;31;35027;-90
2022/07/08 12:52:15;;;;;;;;;;;;;;;29.58;28.23;99382.41;4483558;31;34641;-96
2022/07/08 12:54:43;;;;;;;;;;;;;;;29.40;28.23;99391.53;4478758;31;33863;-91
2022/07/08 12:57:10;;;;;;;;;;;;;;;28.71;29.29;99395.59;4474202;32;33682;-91
2022/07/08 12:59:37;;;;;;;;;;;;;;;29.92;27.66;99387.44;4471753;31;33966;-93
2022/07/08 13:02:05;;;;;;;;;;;;;;;29.78;28.77;99389.19;4473662;31;34107;-91